Empire State — WDE4431 — position and weather

sailwx.info

Track history (hours):
 
Tides and Currents Weather Stations Pressure Air Temp Water Temp Dewpoint Dewpoint Depression Visibility Wind Speed Wind Dir Waves Ship Positions

Empire State

More information available from US FCC via Universal Licensing System and Coast Guard Vessel Documentation Center.

Last reported at 2014-Sep-30 13:29 UTC. Time now 2014-Sep-30 13:59 UTC.
Position N 37°55' W 122°25'.

Length 183 m; draft 9.7 m.

Type: Military. MMSI: 367353080.

Date/timePositionNaut miles runAvg speedWind from/ knotsBaromVisibWave heightAir tempDewpointWater temp
2014-Sep-30 13:29N 37°55' W 122°25'0 0.0
2014-Sep-30 12:32N 37°55' W 122°25'0 0.0
2014-Sep-30 11:32N 37°55' W 122°25'0 0.0
2014-Sep-30 10:32N 37°55' W 122°25'0 0.0
2014-Sep-30 09:32N 37°55' W 122°25'0 0.0
2014-Sep-30 08:32N 37°55' W 122°25'0 0.0
2014-Sep-30 07:32N 37°55' W 122°25'0 0.0
2014-Sep-30 06:32N 37°55' W 122°25'0 0.0
2014-Sep-30 05:32N 37°55' W 122°25'0 0.0
2014-Sep-30 04:29N 37°55' W 122°25'0 0.1
2014-Sep-30 03:32N 37°55' W 122°25'0 0.0
2014-Sep-30 02:32N 37°55' W 122°25'0 0.0
2014-Sep-30 01:32N 37°55' W 122°25'0 0.0
2014-Sep-30 00:32N 37°55' W 122°25'0 0.0
2014-Sep-29 23:32N 37°55' W 122°25'0 0.0
2014-Sep-29 22:32N 37°55' W 122°25'0 0.0
2014-Sep-29 21:32N 37°55' W 122°25'0 0.0
2014-Sep-29 20:32N 37°55' W 122°25'0 0.0
2014-Sep-29 19:32N 37°55' W 122°25'0 0.0
2014-Sep-29 18:29N 37°55' W 122°25'0 0.0
2014-Sep-29 17:32N 37°55' W 122°25'0 0.0
2014-Sep-29 16:32N 37°55' W 122°25'0 0.0
2014-Sep-29 15:32N 37°55' W 122°25'0 0.0
2014-Sep-29 14:32N 37°55' W 122°25'2 2.3
2014-Sep-29 13:34N 37°53' W 122°25'9 9.5
2014-Sep-29 12:34N 37°44' W 122°20'0 0.1
2014-Sep-29 11:31N 37°44' W 122°20'0 0.0
2014-Sep-29 10:31N 37°44' W 122°20'0 0.0
2014-Sep-29 09:31N 37°44' W 122°20'0 0.0
2014-Sep-29 08:31N 37°44' W 122°20'0 0.0
2014-Sep-29 07:31N 37°44' W 122°20'0 0.0
2014-Sep-29 06:31N 37°44' W 122°20'0 0.1
2014-Sep-29 05:31N 37°44' W 122°20'0 0.1
2014-Sep-29 04:31N 37°44' W 122°20'0 0.0
2014-Sep-29 03:31N 37°44' W 122°20'0 0.0
2014-Sep-29 02:31N 37°44' W 122°20'0 0.0
2014-Sep-29 01:31N 37°44' W 122°20'0 0.0
2014-Sep-29 00:31N 37°44' W 122°20'0 0.1
2014-Sep-28 23:32N 37°44' W 122°20'6 6.3
2014-Sep-28 22:34N 37°50' W 122°24'9 9.4
2014-Sep-28 21:33N 37°59' W 122°26'8 8.1
2014-Sep-28 20:34N 38°04' W 122°17'2 0.1
2014-Sep-27 17:05N 38°04' W 122°15'2 2.6
2014-Sep-27 16:30N 38°04' W 122°16'9 9.9
2014-Sep-27 15:33N 37°58' W 122°26'9 9.4
2014-Sep-27 14:33N 37°49' W 122°29'1111.1
2014-Sep-27 13:33N 37°44' W 122°41'1110.9
2014-Sep-27 12:34N 37°38' W 122°52'1010.0
2014-Sep-27 11:33N 37°32' W 123°03'10 9.5
2014-Sep-27 10:31N 37°27' W 123°13'50 9.2
2014-Sep-27 05:08N 37°12' W 124°13'133 8.0
2014-Sep-26 12:33N 34°59' W 124°23'18 8.0
2014-Sep-26 10:15N 34°49' W 124°04'810.1
2014-Sep-26 09:31N 34°47' W 123°56'22 9.8
2014-Sep-26 07:17N 34°41' W 123°30'37 9.4
2014-Sep-26 03:19N 34°32' W 122°46'7 9.2
2014-Sep-26 02:33N 34°30' W 122°38'11 9.3
2014-Sep-26 01:22N 34°27' W 122°25'7 8.4
2014-Sep-26 00:33N 34°24' W 122°18'9 8.7
2014-Sep-25 23:33N 34°17' W 122°11'10 8.7
2014-Sep-25 22:26N 34°10' W 122°03'16 8.6
2014-Sep-25 20:32N 33°58' W 121°50'7011.3
2014-Sep-25 14:16N 33°38' W 120°28'912.7
2014-Sep-25 13:33N 33°38' W 120°17'1212.4
2014-Sep-25 12:33N 33°38' W 120°02'1312.9
2014-Sep-25 11:33N 33°38' W 119°47'1413.7
2014-Sep-25 10:33N 33°38' W 119°30'1413.6
2014-Sep-25 09:33N 33°38' W 119°14'1413.8
2014-Sep-25 08:33N 33°39' W 118°57'1313.3
2014-Sep-25 07:33N 33°38' W 118°42'1313.0
2014-Sep-25 06:33N 33°37' W 118°26'1110.9
2014-Sep-25 05:33N 33°38' W 118°13'6 5.6
2014-Sep-25 04:31N 33°44' W 118°13'0 0.0
2014-Sep-25 03:31N 33°44' W 118°13'0 0.2
2014-Sep-25 02:31N 33°44' W 118°13'0 0.1
2014-Sep-25 01:31N 33°44' W 118°13'0 0.0
2014-Sep-25 00:28N 33°44' W 118°13'0 0.1
2014-Sep-24 23:31N 33°44' W 118°13'0 0.0
2014-Sep-24 22:31N 33°44' W 118°13'0 0.0
2014-Sep-24 21:31N 33°44' W 118°13'0 0.0
2014-Sep-24 20:31N 33°44' W 118°13'0 0.0
2014-Sep-24 19:31N 33°44' W 118°13'1 0.5
2014-Sep-24 18:33N 33°43' W 118°13'3 3.4
2014-Sep-24 17:33N 33°45' W 118°17'0 0.1
2014-Sep-24 16:28N 33°45' W 118°17'0 0.0
2014-Sep-24 15:31N 33°45' W 118°17'0 0.0
2014-Sep-24 14:31N 33°45' W 118°17'0 0.0
2014-Sep-24 13:16N 33°45' W 118°17'0 0.0
2014-Sep-24 12:28N 33°45' W 118°17'0 0.0
2014-Sep-24 10:31N 33°45' W 118°17'0 0.0
2014-Sep-24 09:31N 33°45' W 118°17'0 0.0
2014-Sep-24 08:31N 33°45' W 118°17'0 0.0
2014-Sep-24 07:28N 33°45' W 118°17'0 0.1
2014-Sep-24 06:31N 33°45' W 118°17'0 0.1
2014-Sep-24 05:33N 33°45' W 118°17'0 0.0
2014-Sep-24 04:33N 33°45' W 118°17'0 0.0
2014-Sep-24 03:30N 33°45' W 118°17'0 0.0
2014-Sep-24 02:33N 33°45' W 118°17'0 0.0
2014-Sep-24 01:33N 33°45' W 118°17'0 0.0
2014-Sep-24 00:30N 33°45' W 118°17'0 0.0
2014-Sep-23 23:33N 33°45' W 118°17'0 0.0
2014-Sep-23 22:33N 33°45' W 118°17'0 0.0
2014-Sep-23 21:33N 33°45' W 118°17'0 0.0
2014-Sep-23 20:33N 33°45' W 118°17'0 0.0
2014-Sep-23 19:33N 33°45' W 118°17'0 0.0
2014-Sep-23 18:33N 33°45' W 118°17'0 0.0
2014-Sep-23 17:33N 33°45' W 118°17'0 0.0
2014-Sep-23 16:33N 33°45' W 118°17'0 0.0
2014-Sep-23 15:33N 33°45' W 118°17'0 0.0
2014-Sep-23 14:33N 33°45' W 118°17'0 0.0
2014-Sep-23 13:33N 33°45' W 118°17'0 0.0
2014-Sep-23 12:33N 33°45' W 118°17'0 0.0
2014-Sep-23 11:33N 33°45' W 118°17'0 0.0
2014-Sep-23 10:33N 33°45' W 118°17'0 0.0
2014-Sep-23 09:33N 33°45' W 118°17'0 0.0
2014-Sep-23 08:33N 33°45' W 118°17'0 0.0
2014-Sep-23 07:33N 33°45' W 118°17'0 0.0
2014-Sep-23 06:33N 33°45' W 118°17'0 0.0
2014-Sep-23 05:33N 33°45' W 118°17'0 0.0
2014-Sep-23 04:33N 33°45' W 118°17'0 0.0
2014-Sep-23 03:33N 33°45' W 118°17'0 0.0
2014-Sep-23 02:33N 33°45' W 118°17'0 0.0
2014-Sep-23 01:33N 33°45' W 118°17'0 0.0
2014-Sep-23 00:33N 33°45' W 118°17'0 0.0
2014-Sep-22 23:30N 33°45' W 118°17'0 0.0
2014-Sep-22 22:27N 33°45' W 118°17'0 0.0
2014-Sep-22 21:27N 33°45' W 118°17'0 0.0
2014-Sep-22 20:33N 33°45' W 118°17'0 0.0
2014-Sep-22 19:30N 33°45' W 118°17'0 0.0
2014-Sep-22 18:33N 33°45' W 118°17'0 0.0
2014-Sep-22 17:33N 33°45' W 118°17'0 0.0
2014-Sep-22 16:33N 33°45' W 118°17'0 0.0
2014-Sep-22 15:33N 33°45' W 118°17'1 0.7
2014-Sep-22 14:34N 33°45' W 118°16'5 4.6
2014-Sep-22 13:33N 33°41' W 118°14'6 6.5
2014-Sep-22 12:33N 33°36' W 118°20'9 8.9
2014-Sep-22 11:32N 33°37' W 118°30'9 9.0
2014-Sep-22 10:30N 33°37' W 118°42'9 9.2
2014-Sep-22 09:34N 33°38' W 118°52'9 9.1
2014-Sep-22 08:34N 33°38' W 119°03'9 8.9
2014-Sep-22 07:33N 33°38' W 119°14'9 9.4
2014-Sep-22 06:33N 33°38' W 119°25'9 9.3
2014-Sep-22 05:33N 33°38' W 119°36'8 7.8
2014-Sep-22 04:33N 33°38' W 119°45'9 9.3
2014-Sep-22 03:34N 33°38' W 119°57'9 9.1
2014-Sep-22 02:34N 33°38' W 120°08'9 9.2
2014-Sep-22 01:33N 33°38' W 120°19'9 8.7
2014-Sep-22 00:28N 33°38' W 120°30'8 8.9
2014-Sep-21 23:34N 33°39' W 120°40'9 8.8
2014-Sep-21 22:33N 33°39' W 120°50'10610.3
2014-Sep-21 12:15N 34°43' W 122°33'811.9
2014-Sep-21 11:33N 34°48' W 122°41'1211.9
2014-Sep-21 10:33N 34°56' W 122°52'1111.4
2014-Sep-21 09:33N 35°05' W 123°00'1211.8
2014-Sep-21 08:33N 35°16' W 123°05'1111.5
2014-Sep-21 07:33N 35°27' W 123°08'1211.5
2014-Sep-21 06:33N 35°39' W 123°10'1211.7
2014-Sep-21 05:33N 35°50' W 123°13'1111.6
2014-Sep-21 04:33N 36°01' W 123°17'1211.6
2014-Sep-21 03:33N 36°13' W 123°20'1211.7
2014-Sep-21 02:33N 36°24' W 123°23'1211.9
2014-Sep-21 01:33N 36°36' W 123°26'1212.1
2014-Sep-21 00:33N 36°48' W 123°29'1111.1
2014-Sep-20 23:33N 36°59' W 123°30'1111.3
2014-Sep-20 22:33N 37°10' W 123°25'1110.9
2014-Sep-20 21:33N 37°18' W 123°17'1110.8
2014-Sep-20 20:33N 37°27' W 123°09'1010.5
2014-Sep-20 19:33N 37°36' W 123°02'1110.6
2014-Sep-20 18:33N 37°41' W 122°51'1010.1
2014-Sep-20 17:33N 37°46' W 122°39'1010.3
2014-Sep-20 16:33N 37°50' W 122°27'7 7.4
2014-Sep-20 15:33N 37°58' W 122°27'8 8.1
2014-Sep-20 14:33N 38°03' W 122°19'  
Track history (hours):
 
Tides and Currents Weather Stations Pressure Air Temp Water Temp Dewpoint Dewpoint Depression Visibility Wind Speed Wind Dir Waves Ship Positions

Empire State

More information available from US FCC via Universal Licensing System and Coast Guard Vessel Documentation Center.

Last reported at 2014-Sep-30 13:29 UTC. Time now 2014-Sep-30 13:59 UTC.
Position N 37°55' W 122°25'.

Length 183 m; draft 9.7 m.

Type: Military. MMSI: 367353080.

Date/timePositionNaut miles runAvg speedWind from/ knotsBaromVisibWave heightAir tempDewpointWater temp
2014-Sep-30 13:29N 37°55' W 122°25'0 0.0
2014-Sep-30 12:32N 37°55' W 122°25'0 0.0
2014-Sep-30 11:32N 37°55' W 122°25'0 0.0
2014-Sep-30 10:32N 37°55' W 122°25'0 0.0
2014-Sep-30 09:32N 37°55' W 122°25'0 0.0
2014-Sep-30 08:32N 37°55' W 122°25'0 0.0
2014-Sep-30 07:32N 37°55' W 122°25'0 0.0
2014-Sep-30 06:32N 37°55' W 122°25'0 0.0
2014-Sep-30 05:32N 37°55' W 122°25'0 0.0
2014-Sep-30 04:29N 37°55' W 122°25'0 0.1
2014-Sep-30 03:32N 37°55' W 122°25'0 0.0
2014-Sep-30 02:32N 37°55' W 122°25'0 0.0
2014-Sep-30 01:32N 37°55' W 122°25'0 0.0
2014-Sep-30 00:32N 37°55' W 122°25'0 0.0
2014-Sep-29 23:32N 37°55' W 122°25'0 0.0
2014-Sep-29 22:32N 37°55' W 122°25'0 0.0
2014-Sep-29 21:32N 37°55' W 122°25'0 0.0
2014-Sep-29 20:32N 37°55' W 122°25'0 0.0
2014-Sep-29 19:32N 37°55' W 122°25'0 0.0
2014-Sep-29 18:29N 37°55' W 122°25'0 0.0
2014-Sep-29 17:32N 37°55' W 122°25'0 0.0
2014-Sep-29 16:32N 37°55' W 122°25'0 0.0
2014-Sep-29 15:32N 37°55' W 122°25'0 0.0
2014-Sep-29 14:32N 37°55' W 122°25'2 2.3
2014-Sep-29 13:34N 37°53' W 122°25'9 9.5
2014-Sep-29 12:34N 37°44' W 122°20'0 0.1
2014-Sep-29 11:31N 37°44' W 122°20'0 0.0
2014-Sep-29 10:31N 37°44' W 122°20'0 0.0
2014-Sep-29 09:31N 37°44' W 122°20'0 0.0
2014-Sep-29 08:31N 37°44' W 122°20'0 0.0
2014-Sep-29 07:31N 37°44' W 122°20'0 0.0
2014-Sep-29 06:31N 37°44' W 122°20'0 0.1
2014-Sep-29 05:31N 37°44' W 122°20'0 0.1
2014-Sep-29 04:31N 37°44' W 122°20'0 0.0
2014-Sep-29 03:31N 37°44' W 122°20'0 0.0
2014-Sep-29 02:31N 37°44' W 122°20'0 0.0
2014-Sep-29 01:31N 37°44' W 122°20'0 0.0
2014-Sep-29 00:31N 37°44' W 122°20'0 0.1
2014-Sep-28 23:32N 37°44' W 122°20'6 6.3
2014-Sep-28 22:34N 37°50' W 122°24'9 9.4
2014-Sep-28 21:33N 37°59' W 122°26'8 8.1
2014-Sep-28 20:34N 38°04' W 122°17'2 0.1
2014-Sep-27 17:05N 38°04' W 122°15'2 2.6
2014-Sep-27 16:30N 38°04' W 122°16'9 9.9
2014-Sep-27 15:33N 37°58' W 122°26'9 9.4
2014-Sep-27 14:33N 37°49' W 122°29'1111.1
2014-Sep-27 13:33N 37°44' W 122°41'1110.9
2014-Sep-27 12:34N 37°38' W 122°52'1010.0
2014-Sep-27 11:33N 37°32' W 123°03'10 9.5
2014-Sep-27 10:31N 37°27' W 123°13'50 9.2
2014-Sep-27 05:08N 37°12' W 124°13'133 8.0
2014-Sep-26 12:33N 34°59' W 124°23'18 8.0
2014-Sep-26 10:15N 34°49' W 124°04'810.1
2014-Sep-26 09:31N 34°47' W 123°56'22 9.8
2014-Sep-26 07:17N 34°41' W 123°30'37 9.4
2014-Sep-26 03:19N 34°32' W 122°46'7 9.2
2014-Sep-26 02:33N 34°30' W 122°38'11 9.3
2014-Sep-26 01:22N 34°27' W 122°25'7 8.4
2014-Sep-26 00:33N 34°24' W 122°18'9 8.7
2014-Sep-25 23:33N 34°17' W 122°11'10 8.7
2014-Sep-25 22:26N 34°10' W 122°03'16 8.6
2014-Sep-25 20:32N 33°58' W 121°50'7011.3
2014-Sep-25 14:16N 33°38' W 120°28'912.7
2014-Sep-25 13:33N 33°38' W 120°17'1212.4
2014-Sep-25 12:33N 33°38' W 120°02'1312.9
2014-Sep-25 11:33N 33°38' W 119°47'1413.7
2014-Sep-25 10:33N 33°38' W 119°30'1413.6
2014-Sep-25 09:33N 33°38' W 119°14'1413.8
2014-Sep-25 08:33N 33°39' W 118°57'1313.3
2014-Sep-25 07:33N 33°38' W 118°42'1313.0
2014-Sep-25 06:33N 33°37' W 118°26'1110.9
2014-Sep-25 05:33N 33°38' W 118°13'6 5.6
2014-Sep-25 04:31N 33°44' W 118°13'0 0.0
2014-Sep-25 03:31N 33°44' W 118°13'0 0.2
2014-Sep-25 02:31N 33°44' W 118°13'0 0.1
2014-Sep-25 01:31N 33°44' W 118°13'0 0.0
2014-Sep-25 00:28N 33°44' W 118°13'0 0.1
2014-Sep-24 23:31N 33°44' W 118°13'0 0.0
2014-Sep-24 22:31N 33°44' W 118°13'0 0.0
2014-Sep-24 21:31N 33°44' W 118°13'0 0.0
2014-Sep-24 20:31N 33°44' W 118°13'0 0.0
2014-Sep-24 19:31N 33°44' W 118°13'1 0.5
2014-Sep-24 18:33N 33°43' W 118°13'3 3.4
2014-Sep-24 17:33N 33°45' W 118°17'0 0.1
2014-Sep-24 16:28N 33°45' W 118°17'0 0.0
2014-Sep-24 15:31N 33°45' W 118°17'0 0.0
2014-Sep-24 14:31N 33°45' W 118°17'0 0.0
2014-Sep-24 13:16N 33°45' W 118°17'0 0.0
2014-Sep-24 12:28N 33°45' W 118°17'0 0.0
2014-Sep-24 10:31N 33°45' W 118°17'0 0.0
2014-Sep-24 09:31N 33°45' W 118°17'0 0.0
2014-Sep-24 08:31N 33°45' W 118°17'0 0.0
2014-Sep-24 07:28N 33°45' W 118°17'0 0.1
2014-Sep-24 06:31N 33°45' W 118°17'0 0.1
2014-Sep-24 05:33N 33°45' W 118°17'0 0.0
2014-Sep-24 04:33N 33°45' W 118°17'0 0.0
2014-Sep-24 03:30N 33°45' W 118°17'0 0.0
2014-Sep-24 02:33N 33°45' W 118°17'0 0.0
2014-Sep-24 01:33N 33°45' W 118°17'0 0.0
2014-Sep-24 00:30N 33°45' W 118°17'0 0.0
2014-Sep-23 23:33N 33°45' W 118°17'0 0.0
2014-Sep-23 22:33N 33°45' W 118°17'0 0.0
2014-Sep-23 21:33N 33°45' W 118°17'0 0.0
2014-Sep-23 20:33N 33°45' W 118°17'0 0.0
2014-Sep-23 19:33N 33°45' W 118°17'0 0.0
2014-Sep-23 18:33N 33°45' W 118°17'0 0.0
2014-Sep-23 17:33N 33°45' W 118°17'0 0.0
2014-Sep-23 16:33N 33°45' W 118°17'0 0.0
2014-Sep-23 15:33N 33°45' W 118°17'0 0.0
2014-Sep-23 14:33N 33°45' W 118°17'0 0.0
2014-Sep-23 13:33N 33°45' W 118°17'0 0.0
2014-Sep-23 12:33N 33°45' W 118°17'0 0.0
2014-Sep-23 11:33N 33°45' W 118°17'0 0.0
2014-Sep-23 10:33N 33°45' W 118°17'0 0.0
2014-Sep-23 09:33N 33°45' W 118°17'0 0.0
2014-Sep-23 08:33N 33°45' W 118°17'0 0.0
2014-Sep-23 07:33N 33°45' W 118°17'0 0.0
2014-Sep-23 06:33N 33°45' W 118°17'0 0.0
2014-Sep-23 05:33N 33°45' W 118°17'0 0.0
2014-Sep-23 04:33N 33°45' W 118°17'0 0.0
2014-Sep-23 03:33N 33°45' W 118°17'0 0.0
2014-Sep-23 02:33N 33°45' W 118°17'0 0.0
2014-Sep-23 01:33N 33°45' W 118°17'0 0.0
2014-Sep-23 00:33N 33°45' W 118°17'0 0.0
2014-Sep-22 23:30N 33°45' W 118°17'0 0.0
2014-Sep-22 22:27N 33°45' W 118°17'0 0.0
2014-Sep-22 21:27N 33°45' W 118°17'0 0.0
2014-Sep-22 20:33N 33°45' W 118°17'0 0.0
2014-Sep-22 19:30N 33°45' W 118°17'0 0.0
2014-Sep-22 18:33N 33°45' W 118°17'0 0.0
2014-Sep-22 17:33N 33°45' W 118°17'0 0.0
2014-Sep-22 16:33N 33°45' W 118°17'0 0.0
2014-Sep-22 15:33N 33°45' W 118°17'1 0.7
2014-Sep-22 14:34N 33°45' W 118°16'5 4.6
2014-Sep-22 13:33N 33°41' W 118°14'6 6.5
2014-Sep-22 12:33N 33°36' W 118°20'9 8.9
2014-Sep-22 11:32N 33°37' W 118°30'9 9.0
2014-Sep-22 10:30N 33°37' W 118°42'9 9.2
2014-Sep-22 09:34N 33°38' W 118°52'9 9.1
2014-Sep-22 08:34N 33°38' W 119°03'9 8.9
2014-Sep-22 07:33N 33°38' W 119°14'9 9.4
2014-Sep-22 06:33N 33°38' W 119°25'9 9.3
2014-Sep-22 05:33N 33°38' W 119°36'8 7.8
2014-Sep-22 04:33N 33°38' W 119°45'9 9.3
2014-Sep-22 03:34N 33°38' W 119°57'9 9.1
2014-Sep-22 02:34N 33°38' W 120°08'9 9.2
2014-Sep-22 01:33N 33°38' W 120°19'9 8.7
2014-Sep-22 00:28N 33°38' W 120°30'8 8.9
2014-Sep-21 23:34N 33°39' W 120°40'9 8.8
2014-Sep-21 22:33N 33°39' W 120°50'10610.3
2014-Sep-21 12:15N 34°43' W 122°33'811.9
2014-Sep-21 11:33N 34°48' W 122°41'1211.9
2014-Sep-21 10:33N 34°56' W 122°52'1111.4
2014-Sep-21 09:33N 35°05' W 123°00'1211.8
2014-Sep-21 08:33N 35°16' W 123°05'1111.5
2014-Sep-21 07:33N 35°27' W 123°08'1211.5
2014-Sep-21 06:33N 35°39' W 123°10'1211.7
2014-Sep-21 05:33N 35°50' W 123°13'1111.6
2014-Sep-21 04:33N 36°01' W 123°17'1211.6
2014-Sep-21 03:33N 36°13' W 123°20'1211.7
2014-Sep-21 02:33N 36°24' W 123°23'1211.9
2014-Sep-21 01:33N 36°36' W 123°26'1212.1
2014-Sep-21 00:33N 36°48' W 123°29'1111.1
2014-Sep-20 23:33N 36°59' W 123°30'1111.3
2014-Sep-20 22:33N 37°10' W 123°25'1110.9
2014-Sep-20 21:33N 37°18' W 123°17'1110.8
2014-Sep-20 20:33N 37°27' W 123°09'1010.5
2014-Sep-20 19:33N 37°36' W 123°02'1110.6
2014-Sep-20 18:33N 37°41' W 122°51'1010.1
2014-Sep-20 17:33N 37°46' W 122°39'1010.3
2014-Sep-20 16:33N 37°50' W 122°27'7 7.4
2014-Sep-20 15:33N 37°58' W 122°27'8 8.1
2014-Sep-20 14:33N 38°03' W 122°19'  

Dump ship's entire track history